sensor_id;sensor_type;location;lat;lon;timestamp;P1;durP1;ratioP1;P2;durP2;ratioP2
52718;SDS011;38616;42.140;24.760;2023-05-14T00:02:21;4.30;;;2.72;;
52718;SDS011;38616;42.140;24.760;2023-05-14T00:04:47;4.22;;;2.13;;
52718;SDS011;38616;42.140;24.760;2023-05-14T00:07:13;4.25;;;2.38;;
52718;SDS011;38616;42.140;24.760;2023-05-14T00:09:38;8.85;;;2.80;;
52718;SDS011;38616;42.140;24.760;2023-05-14T00:12:04;4.15;;;2.08;;
52718;SDS011;38616;42.140;24.760;2023-05-14T00:14:29;3.92;;;2.65;;
52718;SDS011;38616;42.140;24.760;2023-05-14T00:16:55;6.25;;;2.03;;
52718;SDS011;38616;42.140;24.760;2023-05-14T00:19:20;5.28;;;1.90;;
52718;SDS011;38616;42.140;24.760;2023-05-14T00:21:46;3.60;;;1.92;;
52718;SDS011;38616;42.140;24.760;2023-05-14T00:24:12;4.22;;;1.95;;
52718;SDS011;38616;42.140;24.760;2023-05-14T00:26:38;14.65;;;2.25;;
52718;SDS011;38616;42.140;24.760;2023-05-14T00:29:04;7.53;;;2.42;;
52718;SDS011;38616;42.140;24.760;2023-05-14T00:31:29;7.57;;;2.28;;
52718;SDS011;38616;42.140;24.760;2023-05-14T00:33:54;4.75;;;2.63;;
52718;SDS011;38616;42.140;24.760;2023-05-14T00:36:20;4.93;;;2.35;;
52718;SDS011;38616;42.140;24.760;2023-05-14T00:38:45;5.45;;;2.70;;
52718;SDS011;38616;42.140;24.760;2023-05-14T00:41:11;3.40;;;1.70;;
52718;SDS011;38616;42.140;24.760;2023-05-14T00:43:36;4.60;;;1.75;;
52718;SDS011;38616;42.140;24.760;2023-05-14T00:46:01;8.88;;;2.72;;
52718;SDS011;38616;42.140;24.760;2023-05-14T00:48:27;7.50;;;2.33;;
52718;SDS011;38616;42.140;24.760;2023-05-14T00:50:53;4.78;;;2.03;;
52718;SDS011;38616;42.140;24.760;2023-05-14T00:53:19;3.45;;;2.03;;
52718;SDS011;38616;42.140;24.760;2023-05-14T00:55:45;4.00;;;2.40;;
52718;SDS011;38616;42.140;24.760;2023-05-14T01:00:38;3.08;;;2.38;;
52718;SDS011;38616;42.140;24.760;2023-05-14T01:03:05;5.40;;;2.05;;
52718;SDS011;38616;42.140;24.760;2023-05-14T01:05:40;5.10;;;2.17;;
52718;SDS011;38616;42.140;24.760;2023-05-14T01:11:11;6.28;;;1.90;;
52718;SDS011;38616;42.140;24.760;2023-05-14T01:14:08;3.90;;;2.05;;
52718;SDS011;38616;42.140;24.760;2023-05-14T01:16:27;5.80;;;2.50;;
52718;SDS011;38616;42.140;24.760;2023-05-14T01:18:57;5.00;;;2.05;;
52718;SDS011;38616;42.140;24.760;2023-05-14T01:24:01;7.60;;;2.65;;
52718;SDS011;38616;42.140;24.760;2023-05-14T01:26:27;3.67;;;2.13;;
52718;SDS011;38616;42.140;24.760;2023-05-14T01:28:55;7.20;;;2.40;;
52718;SDS011;38616;42.140;24.760;2023-05-14T01:31:26;5.85;;;2.33;;
52718;SDS011;38616;42.140;24.760;2023-05-14T01:33:56;4.70;;;2.38;;
52718;SDS011;38616;42.140;24.760;2023-05-14T01:36:23;6.57;;;2.97;;
52718;SDS011;38616;42.140;24.760;2023-05-14T01:38:49;4.97;;;2.28;;
52718;SDS011;38616;42.140;24.760;2023-05-14T01:41:15;5.43;;;2.80;;
52718;SDS011;38616;42.140;24.760;2023-05-14T01:43:43;5.95;;;2.70;;
52718;SDS011;38616;42.140;24.760;2023-05-14T01:46:09;4.43;;;2.70;;
52718;SDS011;38616;42.140;24.760;2023-05-14T01:48:36;4.28;;;2.30;;
52718;SDS011;38616;42.140;24.760;2023-05-14T01:51:02;8.77;;;2.42;;
52718;SDS011;38616;42.140;24.760;2023-05-14T01:53:28;7.60;;;2.38;;
52718;SDS011;38616;42.140;24.760;2023-05-14T01:55:53;4.47;;;2.33;;
52718;SDS011;38616;42.140;24.760;2023-05-14T01:58:18;3.83;;;2.33;;
52718;SDS011;38616;42.140;24.760;2023-05-14T02:00:44;4.18;;;2.42;;
52718;SDS011;38616;42.140;24.760;2023-05-14T02:03:10;4.00;;;2.17;;
52718;SDS011;38616;42.140;24.760;2023-05-14T02:05:35;2.92;;;2.08;;
52718;SDS011;38616;42.140;24.760;2023-05-14T02:08:00;7.00;;;1.90;;
52718;SDS011;38616;42.140;24.760;2023-05-14T02:10:29;3.60;;;2.00;;
52718;SDS011;38616;42.140;24.760;2023-05-14T02:12:54;4.75;;;3.17;;
52718;SDS011;38616;42.140;24.760;2023-05-14T02:15:20;4.53;;;2.20;;
52718;SDS011;38616;42.140;24.760;2023-05-14T02:17:45;6.95;;;2.13;;
52718;SDS011;38616;42.140;24.760;2023-05-14T02:20:11;3.28;;;1.55;;
52718;SDS011;38616;42.140;24.760;2023-05-14T02:22:37;5.50;;;2.17;;
52718;SDS011;38616;42.140;24.760;2023-05-14T02:25:02;4.43;;;2.00;;
52718;SDS011;38616;42.140;24.760;2023-05-14T02:27:28;5.68;;;2.15;;
52718;SDS011;38616;42.140;24.760;2023-05-14T02:29:53;9.45;;;2.22;;
52718;SDS011;38616;42.140;24.760;2023-05-14T02:32:20;3.13;;;1.90;;
52718;SDS011;38616;42.140;24.760;2023-05-14T02:34:45;9.68;;;3.20;;
52718;SDS011;38616;42.140;24.760;2023-05-14T02:37:11;9.73;;;2.95;;
52718;SDS011;38616;42.140;24.760;2023-05-14T02:39:36;8.00;;;3.45;;
52718;SDS011;38616;42.140;24.760;2023-05-14T02:42:02;7.13;;;3.25;;
52718;SDS011;38616;42.140;24.760;2023-05-14T02:44:27;5.45;;;3.35;;
52718;SDS011;38616;42.140;24.760;2023-05-14T02:46:52;9.00;;;3.40;;
52718;SDS011;38616;42.140;24.760;2023-05-14T02:49:18;8.25;;;2.88;;
52718;SDS011;38616;42.140;24.760;2023-05-14T02:51:43;6.15;;;3.03;;
52718;SDS011;38616;42.140;24.760;2023-05-14T02:54:08;13.32;;;2.85;;
52718;SDS011;38616;42.140;24.760;2023-05-14T02:56:34;7.15;;;2.67;;
52718;SDS011;38616;42.140;24.760;2023-05-14T02:58:59;9.00;;;3.78;;
52718;SDS011;38616;42.140;24.760;2023-05-14T03:01:25;3.67;;;2.28;;
52718;SDS011;38616;42.140;24.760;2023-05-14T03:03:50;5.60;;;2.00;;
52718;SDS011;38616;42.140;24.760;2023-05-14T03:06:16;6.28;;;2.42;;
52718;SDS011;38616;42.140;24.760;2023-05-14T03:08:41;4.40;;;2.47;;
52718;SDS011;38616;42.140;24.760;2023-05-14T03:11:07;6.28;;;2.70;;
52718;SDS011;38616;42.140;24.760;2023-05-14T03:13:32;7.70;;;2.38;;
52718;SDS011;38616;42.140;24.760;2023-05-14T03:15:58;5.40;;;2.53;;
52718;SDS011;38616;42.140;24.760;2023-05-14T03:18:23;8.65;;;2.72;;
52718;SDS011;38616;42.140;24.760;2023-05-14T03:20:48;6.35;;;2.65;;
52718;SDS011;38616;42.140;24.760;2023-05-14T03:23:14;5.63;;;2.10;;
52718;SDS011;38616;42.140;24.760;2023-05-14T03:25:40;3.70;;;2.20;;
52718;SDS011;38616;42.140;24.760;2023-05-14T03:28:05;7.80;;;2.78;;
52718;SDS011;38616;42.140;24.760;2023-05-14T03:30:30;7.82;;;2.85;;
52718;SDS011;38616;42.140;24.760;2023-05-14T03:32:56;6.82;;;2.72;;
52718;SDS011;38616;42.140;24.760;2023-05-14T03:35:21;5.10;;;2.72;;
52718;SDS011;38616;42.140;24.760;2023-05-14T03:37:47;6.13;;;3.65;;
52718;SDS011;38616;42.140;24.760;2023-05-14T03:40:13;3.33;;;2.40;;
52718;SDS011;38616;42.140;24.760;2023-05-14T03:42:38;4.40;;;2.40;;
52718;SDS011;38616;42.140;24.760;2023-05-14T03:45:04;4.88;;;2.60;;
52718;SDS011;38616;42.140;24.760;2023-05-14T03:47:33;7.45;;;2.10;;
52718;SDS011;38616;42.140;24.760;2023-05-14T03:49:58;5.97;;;2.28;;
52718;SDS011;38616;42.140;24.760;2023-05-14T03:52:23;3.83;;;2.17;;
52718;SDS011;38616;42.140;24.760;2023-05-14T03:54:49;4.97;;;2.28;;
52718;SDS011;38616;42.140;24.760;2023-05-14T03:57:14;9.35;;;2.72;;
52718;SDS011;38616;42.140;24.760;2023-05-14T03:59:40;9.85;;;2.85;;
52718;SDS011;38616;42.140;24.760;2023-05-14T04:02:05;8.13;;;2.67;;
52718;SDS011;38616;42.140;24.760;2023-05-14T04:04:31;6.80;;;3.20;;
52718;SDS011;38616;42.140;24.760;2023-05-14T04:06:56;6.55;;;2.38;;
52718;SDS011;38616;42.140;24.760;2023-05-14T04:09:22;6.35;;;3.10;;
52718;SDS011;38616;42.140;24.760;2023-05-14T04:11:47;6.75;;;3.08;;
52718;SDS011;38616;42.140;24.760;2023-05-14T04:14:13;6.85;;;2.88;;
52718;SDS011;38616;42.140;24.760;2023-05-14T04:16:38;6.13;;;3.42;;
52718;SDS011;38616;42.140;24.760;2023-05-14T04:19:03;6.32;;;2.70;;
52718;SDS011;38616;42.140;24.760;2023-05-14T04:21:30;5.65;;;3.10;;
52718;SDS011;38616;42.140;24.760;2023-05-14T04:23:56;4.82;;;3.20;;
52718;SDS011;38616;42.140;24.760;2023-05-14T04:26:21;12.70;;;4.85;;
52718;SDS011;38616;42.140;24.760;2023-05-14T04:28:46;7.78;;;3.88;;
52718;SDS011;38616;42.140;24.760;2023-05-14T04:31:12;6.55;;;4.20;;
52718;SDS011;38616;42.140;24.760;2023-05-14T04:33:37;5.78;;;3.20;;
52718;SDS011;38616;42.140;24.760;2023-05-14T04:36:04;6.53;;;2.97;;
52718;SDS011;38616;42.140;24.760;2023-05-14T04:38:29;4.45;;;2.85;;
52718;SDS011;38616;42.140;24.760;2023-05-14T04:40:56;4.88;;;2.85;;
52718;SDS011;38616;42.140;24.760;2023-05-14T04:43:22;6.50;;;3.50;;
52718;SDS011;38616;42.140;24.760;2023-05-14T04:45:49;16.35;;;8.85;;
52718;SDS011;38616;42.140;24.760;2023-05-14T04:48:16;12.98;;;4.80;;
52718;SDS011;38616;42.140;24.760;2023-05-14T04:50:41;8.35;;;4.55;;
52718;SDS011;38616;42.140;24.760;2023-05-14T04:53:08;7.10;;;2.90;;
52718;SDS011;38616;42.140;24.760;2023-05-14T04:55:34;16.60;;;7.97;;
52718;SDS011;38616;42.140;24.760;2023-05-14T04:57:59;17.92;;;7.82;;
52718;SDS011;38616;42.140;24.760;2023-05-14T05:00:25;16.23;;;5.38;;
52718;SDS011;38616;42.140;24.760;2023-05-14T05:02:50;11.20;;;5.57;;
52718;SDS011;38616;42.140;24.760;2023-05-14T05:05:16;14.93;;;4.80;;
52718;SDS011;38616;42.140;24.760;2023-05-14T05:07:41;12.88;;;5.65;;
52718;SDS011;38616;42.140;24.760;2023-05-14T05:10:07;11.70;;;5.82;;
52718;SDS011;38616;42.140;24.760;2023-05-14T05:12:32;8.55;;;5.30;;
52718;SDS011;38616;42.140;24.760;2023-05-14T05:14:59;8.18;;;4.70;;
52718;SDS011;38616;42.140;24.760;2023-05-14T05:17:24;5.82;;;3.53;;
52718;SDS011;38616;42.140;24.760;2023-05-14T05:19:50;9.85;;;3.60;;
52718;SDS011;38616;42.140;24.760;2023-05-14T05:22:15;11.65;;;3.60;;
52718;SDS011;38616;42.140;24.760;2023-05-14T05:24:41;6.45;;;3.03;;
52718;SDS011;38616;42.140;24.760;2023-05-14T05:27:06;5.72;;;2.83;;
52718;SDS011;38616;42.140;24.760;2023-05-14T05:29:33;5.45;;;3.00;;
52718;SDS011;38616;42.140;24.760;2023-05-14T05:31:59;7.03;;;3.13;;
52718;SDS011;38616;42.140;24.760;2023-05-14T05:34:25;8.40;;;3.30;;
52718;SDS011;38616;42.140;24.760;2023-05-14T05:36:50;8.23;;;3.40;;
52718;SDS011;38616;42.140;24.760;2023-05-14T05:39:15;8.82;;;4.70;;
52718;SDS011;38616;42.140;24.760;2023-05-14T05:41:41;15.48;;;7.35;;
52718;SDS011;38616;42.140;24.760;2023-05-14T05:44:09;16.80;;;7.88;;
52718;SDS011;38616;42.140;24.760;2023-05-14T05:46:35;15.38;;;6.68;;
52718;SDS011;38616;42.140;24.760;2023-05-14T05:49:00;9.55;;;4.70;;
52718;SDS011;38616;42.140;24.760;2023-05-14T05:51:25;10.20;;;4.22;;
52718;SDS011;38616;42.140;24.760;2023-05-14T05:53:54;8.02;;;3.03;;
52718;SDS011;38616;42.140;24.760;2023-05-14T05:56:20;6.10;;;3.25;;
52718;SDS011;38616;42.140;24.760;2023-05-14T05:58:46;5.50;;;3.20;;
52718;SDS011;38616;42.140;24.760;2023-05-14T06:01:11;4.78;;;2.78;;
52718;SDS011;38616;42.140;24.760;2023-05-14T06:03:36;5.78;;;2.78;;
52718;SDS011;38616;42.140;24.760;2023-05-14T06:06:02;21.08;;;3.95;;
52718;SDS011;38616;42.140;24.760;2023-05-14T06:08:27;8.45;;;4.13;;
52718;SDS011;38616;42.140;24.760;2023-05-14T06:10:53;7.15;;;3.53;;
52718;SDS011;38616;42.140;24.760;2023-05-14T06:13:18;9.07;;;3.95;;
52718;SDS011;38616;42.140;24.760;2023-05-14T06:15:43;9.52;;;4.15;;
52718;SDS011;38616;42.140;24.760;2023-05-14T06:18:11;10.60;;;3.55;;
52718;SDS011;38616;42.140;24.760;2023-05-14T06:20:37;7.15;;;3.17;;
52718;SDS011;38616;42.140;24.760;2023-05-14T06:23:03;14.05;;;5.18;;
52718;SDS011;38616;42.140;24.760;2023-05-14T06:25:29;13.60;;;4.78;;
52718;SDS011;38616;42.140;24.760;2023-05-14T06:27:55;9.15;;;3.70;;
52718;SDS011;38616;42.140;24.760;2023-05-14T06:30:20;9.65;;;4.13;;
52718;SDS011;38616;42.140;24.760;2023-05-14T06:32:46;11.40;;;4.50;;
52718;SDS011;38616;42.140;24.760;2023-05-14T06:35:11;7.82;;;3.88;;
52718;SDS011;38616;42.140;24.760;2023-05-14T06:37:36;17.52;;;7.93;;
52718;SDS011;38616;42.140;24.760;2023-05-14T06:40:02;12.95;;;6.05;;
52718;SDS011;38616;42.140;24.760;2023-05-14T06:42:28;8.98;;;3.97;;
52718;SDS011;38616;42.140;24.760;2023-05-14T06:44:53;4.40;;;2.65;;
52718;SDS011;38616;42.140;24.760;2023-05-14T06:47:18;7.53;;;2.80;;
52718;SDS011;38616;42.140;24.760;2023-05-14T06:49:44;5.03;;;3.03;;
52718;SDS011;38616;42.140;24.760;2023-05-14T06:52:09;6.40;;;3.42;;
52718;SDS011;38616;42.140;24.760;2023-05-14T06:54:35;9.88;;;4.70;;
52718;SDS011;38616;42.140;24.760;2023-05-14T06:57:00;7.38;;;3.05;;
52718;SDS011;38616;42.140;24.760;2023-05-14T06:59:25;7.72;;;3.40;;
52718;SDS011;38616;42.140;24.760;2023-05-14T07:01:51;7.13;;;3.60;;
52718;SDS011;38616;42.140;24.760;2023-05-14T07:04:16;8.05;;;4.10;;
52718;SDS011;38616;42.140;24.760;2023-05-14T07:06:42;5.80;;;3.30;;
52718;SDS011;38616;42.140;24.760;2023-05-14T07:09:07;10.93;;;4.65;;
52718;SDS011;38616;42.140;24.760;2023-05-14T07:11:32;10.82;;;4.38;;
52718;SDS011;38616;42.140;24.760;2023-05-14T07:13:58;16.00;;;5.93;;
52718;SDS011;38616;42.140;24.760;2023-05-14T07:16:24;10.98;;;6.30;;
52718;SDS011;38616;42.140;24.760;2023-05-14T07:18:50;11.73;;;4.50;;
52718;SDS011;38616;42.140;24.760;2023-05-14T07:21:15;9.07;;;4.50;;
52718;SDS011;38616;42.140;24.760;2023-05-14T07:23:41;13.93;;;4.78;;
52718;SDS011;38616;42.140;24.760;2023-05-14T07:26:06;8.68;;;4.68;;
52718;SDS011;38616;42.140;24.760;2023-05-14T07:28:32;9.32;;;4.20;;
52718;SDS011;38616;42.140;24.760;2023-05-14T07:30:58;9.00;;;4.07;;
52718;SDS011;38616;42.140;24.760;2023-05-14T07:33:24;11.38;;;4.78;;
52718;SDS011;38616;42.140;24.760;2023-05-14T07:35:49;9.73;;;4.68;;
52718;SDS011;38616;42.140;24.760;2023-05-14T07:38:15;10.40;;;5.38;;
52718;SDS011;38616;42.140;24.760;2023-05-14T07:40:41;8.98;;;4.20;;
52718;SDS011;38616;42.140;24.760;2023-05-14T07:43:07;9.07;;;5.15;;
52718;SDS011;38616;42.140;24.760;2023-05-14T07:45:35;8.38;;;4.70;;
52718;SDS011;38616;42.140;24.760;2023-05-14T07:48:01;8.38;;;4.35;;
52718;SDS011;38616;42.140;24.760;2023-05-14T07:50:26;12.23;;;8.35;;
52718;SDS011;38616;42.140;24.760;2023-05-14T07:52:51;15.38;;;7.82;;
52718;SDS011;38616;42.140;24.760;2023-05-14T07:55:17;19.88;;;15.52;;
52718;SDS011;38616;42.140;24.760;2023-05-14T07:57:42;13.27;;;7.15;;
52718;SDS011;38616;42.140;24.760;2023-05-14T08:00:08;8.43;;;5.00;;
52718;SDS011;38616;42.140;24.760;2023-05-14T08:02:33;8.85;;;5.40;;
52718;SDS011;38616;42.140;24.760;2023-05-14T08:04:59;12.88;;;7.35;;
52718;SDS011;38616;42.140;24.760;2023-05-14T08:07:24;10.93;;;5.80;;
52718;SDS011;38616;42.140;24.760;2023-05-14T08:09:51;20.58;;;7.90;;
52718;SDS011;38616;42.140;24.760;2023-05-14T08:12:17;15.50;;;6.75;;
52718;SDS011;38616;42.140;24.760;2023-05-14T08:14:42;12.82;;;5.78;;
52718;SDS011;38616;42.140;24.760;2023-05-14T08:17:07;10.88;;;5.93;;
52718;SDS011;38616;42.140;24.760;2023-05-14T08:19:33;16.23;;;6.72;;
52718;SDS011;38616;42.140;24.760;2023-05-14T08:22:01;15.80;;;7.85;;
52718;SDS011;38616;42.140;24.760;2023-05-14T08:24:27;17.98;;;8.57;;
52718;SDS011;38616;42.140;24.760;2023-05-14T08:26:53;17.20;;;9.30;;
52718;SDS011;38616;42.140;24.760;2023-05-14T08:29:19;18.38;;;9.98;;
52718;SDS011;38616;42.140;24.760;2023-05-14T08:31:45;18.55;;;9.20;;
52718;SDS011;38616;42.140;24.760;2023-05-14T08:34:10;13.07;;;7.63;;
52718;SDS011;38616;42.140;24.760;2023-05-14T08:36:37;13.10;;;7.13;;
52718;SDS011;38616;42.140;24.760;2023-05-14T08:39:03;12.88;;;8.05;;
52718;SDS011;38616;42.140;24.760;2023-05-14T08:41:28;13.13;;;7.30;;
52718;SDS011;38616;42.140;24.760;2023-05-14T08:46:36;17.10;;;8.45;;
52718;SDS011;38616;42.140;24.760;2023-05-14T08:51:56;13.65;;;7.38;;
52718;SDS011;38616;42.140;24.760;2023-05-14T08:54:22;16.77;;;7.18;;
52718;SDS011;38616;42.140;24.760;2023-05-14T08:56:48;21.38;;;9.85;;
52718;SDS011;38616;42.140;24.760;2023-05-14T08:59:16;14.48;;;6.15;;
52718;SDS011;38616;42.140;24.760;2023-05-14T09:01:43;13.43;;;6.03;;
52718;SDS011;38616;42.140;24.760;2023-05-14T09:04:12;13.10;;;6.82;;
52718;SDS011;38616;42.140;24.760;2023-05-14T09:06:40;14.82;;;7.70;;
52718;SDS011;38616;42.140;24.760;2023-05-14T09:09:07;18.58;;;7.57;;
52718;SDS011;38616;42.140;24.760;2023-05-14T09:11:39;13.43;;;7.07;;
52718;SDS011;38616;42.140;24.760;2023-05-14T09:14:05;12.32;;;5.68;;
52718;SDS011;38616;42.140;24.760;2023-05-14T09:16:30;15.25;;;6.70;;
52718;SDS011;38616;42.140;24.760;2023-05-14T09:18:56;16.75;;;9.18;;
52718;SDS011;38616;42.140;24.760;2023-05-14T09:21:22;18.48;;;9.80;;
52718;SDS011;38616;42.140;24.760;2023-05-14T09:23:47;14.25;;;7.68;;
52718;SDS011;38616;42.140;24.760;2023-05-14T09:26:20;13.68;;;5.65;;
52718;SDS011;38616;42.140;24.760;2023-05-14T09:28:51;10.80;;;5.68;;
52718;SDS011;38616;42.140;24.760;2023-05-14T09:31:17;9.77;;;5.85;;
52718;SDS011;38616;42.140;24.760;2023-05-14T09:33:47;14.15;;;7.57;;
52718;SDS011;38616;42.140;24.760;2023-05-14T09:36:14;13.55;;;6.82;;
52718;SDS011;38616;42.140;24.760;2023-05-14T09:38:41;17.63;;;9.73;;
52718;SDS011;38616;42.140;24.760;2023-05-14T09:41:06;14.25;;;8.15;;
52718;SDS011;38616;42.140;24.760;2023-05-14T09:43:31;16.55;;;7.55;;
52718;SDS011;38616;42.140;24.760;2023-05-14T09:45:57;16.02;;;7.03;;
52718;SDS011;38616;42.140;24.760;2023-05-14T09:48:22;13.23;;;6.55;;
52718;SDS011;38616;42.140;24.760;2023-05-14T09:50:48;13.95;;;7.15;;
52718;SDS011;38616;42.140;24.760;2023-05-14T09:53:15;12.48;;;6.80;;
52718;SDS011;38616;42.140;24.760;2023-05-14T09:55:41;12.95;;;6.68;;
52718;SDS011;38616;42.140;24.760;2023-05-14T09:58:07;18.52;;;10.32;;
52718;SDS011;38616;42.140;24.760;2023-05-14T10:00:32;16.23;;;7.93;;
52718;SDS011;38616;42.140;24.760;2023-05-14T10:02:59;12.35;;;7.43;;
52718;SDS011;38616;42.140;24.760;2023-05-14T10:05:36;15.35;;;7.85;;
52718;SDS011;38616;42.140;24.760;2023-05-14T10:08:08;11.75;;;6.63;;
52718;SDS011;38616;42.140;24.760;2023-05-14T10:10:37;17.38;;;9.00;;
52718;SDS011;38616;42.140;24.760;2023-05-14T10:13:04;29.52;;;17.27;;
52718;SDS011;38616;42.140;24.760;2023-05-14T10:18:09;16.38;;;7.70;;
52718;SDS011;38616;42.140;24.760;2023-05-14T10:20:40;11.52;;;6.13;;
52718;SDS011;38616;42.140;24.760;2023-05-14T10:23:06;12.63;;;7.35;;
52718;SDS011;38616;42.140;24.760;2023-05-14T10:25:32;12.10;;;6.70;;
52718;SDS011;38616;42.140;24.760;2023-05-14T10:27:59;14.63;;;7.13;;
52718;SDS011;38616;42.140;24.760;2023-05-14T10:30:25;13.35;;;7.30;;
52718;SDS011;38616;42.140;24.760;2023-05-14T10:33:07;15.35;;;6.68;;
52718;SDS011;38616;42.140;24.760;2023-05-14T10:38:21;13.95;;;7.55;;
52718;SDS011;38616;42.140;24.760;2023-05-14T10:40:52;13.45;;;7.97;;
52718;SDS011;38616;42.140;24.760;2023-05-14T10:43:21;20.30;;;10.38;;
52718;SDS011;38616;42.140;24.760;2023-05-14T10:45:51;15.68;;;9.52;;
52718;SDS011;38616;42.140;24.760;2023-05-14T10:48:16;13.32;;;8.27;;
52718;SDS011;38616;42.140;24.760;2023-05-14T10:50:43;14.20;;;8.10;;
52718;SDS011;38616;42.140;24.760;2023-05-14T10:53:12;13.05;;;7.80;;
52718;SDS011;38616;42.140;24.760;2023-05-14T10:55:38;19.60;;;12.40;;
52718;SDS011;38616;42.140;24.760;2023-05-14T10:58:03;12.00;;;7.43;;
52718;SDS011;38616;42.140;24.760;2023-05-14T11:00:32;13.60;;;7.15;;
52718;SDS011;38616;42.140;24.760;2023-05-14T11:02:59;11.88;;;7.35;;
52718;SDS011;38616;42.140;24.760;2023-05-14T11:05:27;14.73;;;7.47;;
52718;SDS011;38616;42.140;24.760;2023-05-14T11:07:54;12.38;;;7.75;;
52718;SDS011;38616;42.140;24.760;2023-05-14T11:10:21;11.82;;;7.20;;
52718;SDS011;38616;42.140;24.760;2023-05-14T11:12:49;11.70;;;7.38;;
52718;SDS011;38616;42.140;24.760;2023-05-14T11:15:16;14.63;;;8.15;;
52718;SDS011;38616;42.140;24.760;2023-05-14T11:17:44;15.60;;;9.27;;
52718;SDS011;38616;42.140;24.760;2023-05-14T11:20:11;16.25;;;8.02;;
52718;SDS011;38616;42.140;24.760;2023-05-14T11:22:38;15.95;;;9.38;;
52718;SDS011;38616;42.140;24.760;2023-05-14T11:25:04;16.50;;;7.22;;
52718;SDS011;38616;42.140;24.760;2023-05-14T11:27:32;12.43;;;7.10;;
52718;SDS011;38616;42.140;24.760;2023-05-14T11:29:59;12.98;;;7.70;;
52718;SDS011;38616;42.140;24.760;2023-05-14T11:32:25;12.85;;;6.85;;
52718;SDS011;38616;42.140;24.760;2023-05-14T11:34:51;11.75;;;7.57;;
52718;SDS011;38616;42.140;24.760;2023-05-14T11:37:17;12.40;;;8.02;;
52718;SDS011;38616;42.140;24.760;2023-05-14T11:39:49;20.02;;;10.68;;
52718;SDS011;38616;42.140;24.760;2023-05-14T11:42:16;17.80;;;9.88;;
52718;SDS011;38616;42.140;24.760;2023-05-14T11:44:50;12.10;;;8.43;;
52718;SDS011;38616;42.140;24.760;2023-05-14T11:47:17;18.92;;;10.23;;
52718;SDS011;38616;42.140;24.760;2023-05-14T11:49:44;15.50;;;8.73;;
52718;SDS011;38616;42.140;24.760;2023-05-14T11:52:10;12.95;;;7.82;;
52718;SDS011;38616;42.140;24.760;2023-05-14T11:54:38;12.18;;;7.75;;
52718;SDS011;38616;42.140;24.760;2023-05-14T11:57:38;13.32;;;8.15;;
52718;SDS011;38616;42.140;24.760;2023-05-14T11:59:57;15.57;;;9.60;;
52718;SDS011;38616;42.140;24.760;2023-05-14T12:02:23;20.02;;;11.60;;
52718;SDS011;38616;42.140;24.760;2023-05-14T12:04:53;12.65;;;7.72;;
52718;SDS011;38616;42.140;24.760;2023-05-14T12:07:18;15.60;;;8.70;;
52718;SDS011;38616;42.140;24.760;2023-05-14T12:09:45;12.05;;;7.82;;
52718;SDS011;38616;42.140;24.760;2023-05-14T12:12:13;12.63;;;7.35;;
52718;SDS011;38616;42.140;24.760;2023-05-14T12:14:43;13.32;;;7.80;;
52718;SDS011;38616;42.140;24.760;2023-05-14T12:17:19;15.43;;;6.97;;
52718;SDS011;38616;42.140;24.760;2023-05-14T12:19:47;13.70;;;7.50;;
52718;SDS011;38616;42.140;24.760;2023-05-14T12:22:14;14.43;;;8.60;;
52718;SDS011;38616;42.140;24.760;2023-05-14T12:24:42;14.68;;;7.22;;
52718;SDS011;38616;42.140;24.760;2023-05-14T12:27:20;14.73;;;8.90;;
52718;SDS011;38616;42.140;24.760;2023-05-14T12:29:47;15.40;;;9.73;;
52718;SDS011;38616;42.140;24.760;2023-05-14T12:32:13;14.02;;;8.85;;
52718;SDS011;38616;42.140;24.760;2023-05-14T12:34:38;11.77;;;7.88;;
52718;SDS011;38616;42.140;24.760;2023-05-14T12:37:04;17.65;;;8.68;;
52718;SDS011;38616;42.140;24.760;2023-05-14T12:39:31;11.52;;;8.15;;
52718;SDS011;38616;42.140;24.760;2023-05-14T12:41:58;15.73;;;8.70;;
52718;SDS011;38616;42.140;24.760;2023-05-14T12:44:23;16.45;;;9.13;;
52718;SDS011;38616;42.140;24.760;2023-05-14T12:46:49;11.90;;;7.75;;
52718;SDS011;38616;42.140;24.760;2023-05-14T12:49:14;13.10;;;8.73;;
52718;SDS011;38616;42.140;24.760;2023-05-14T12:51:40;14.05;;;8.05;;
52718;SDS011;38616;42.140;24.760;2023-05-14T12:54:05;12.63;;;7.93;;
52718;SDS011;38616;42.140;24.760;2023-05-14T12:56:31;12.85;;;7.90;;
52718;SDS011;38616;42.140;24.760;2023-05-14T12:59:01;13.25;;;7.78;;
52718;SDS011;38616;42.140;24.760;2023-05-14T13:01:33;18.05;;;9.07;;
52718;SDS011;38616;42.140;24.760;2023-05-14T13:04:00;13.60;;;9.25;;
52718;SDS011;38616;42.140;24.760;2023-05-14T13:06:26;12.68;;;8.43;;
52718;SDS011;38616;42.140;24.760;2023-05-14T13:08:51;16.35;;;9.40;;
52718;SDS011;38616;42.140;24.760;2023-05-14T13:11:16;18.48;;;9.93;;
52718;SDS011;38616;42.140;24.760;2023-05-14T13:13:42;15.63;;;8.73;;
52718;SDS011;38616;42.140;24.760;2023-05-14T13:16:07;15.90;;;9.73;;
52718;SDS011;38616;42.140;24.760;2023-05-14T13:18:34;18.83;;;10.00;;
52718;SDS011;38616;42.140;24.760;2023-05-14T13:20:59;16.38;;;10.40;;
52718;SDS011;38616;42.140;24.760;2023-05-14T13:23:24;16.77;;;10.25;;
52718;SDS011;38616;42.140;24.760;2023-05-14T13:25:50;23.75;;;12.07;;
52718;SDS011;38616;42.140;24.760;2023-05-14T13:28:15;15.85;;;10.02;;
52718;SDS011;38616;42.140;24.760;2023-05-14T13:30:42;15.07;;;9.85;;
52718;SDS011;38616;42.140;24.760;2023-05-14T13:33:45;18.73;;;11.05;;
52718;SDS011;38616;42.140;24.760;2023-05-14T13:36:12;16.63;;;10.40;;
52718;SDS011;38616;42.140;24.760;2023-05-14T13:41:05;15.15;;;9.02;;
52718;SDS011;38616;42.140;24.760;2023-05-14T13:43:31;15.70;;;9.35;;
52718;SDS011;38616;42.140;24.760;2023-05-14T13:45:57;21.50;;;9.82;;
52718;SDS011;38616;42.140;24.760;2023-05-14T13:48:24;15.77;;;10.27;;
52718;SDS011;38616;42.140;24.760;2023-05-14T13:50:50;20.35;;;11.63;;
52718;SDS011;38616;42.140;24.760;2023-05-14T13:53:16;31.27;;;17.13;;
52718;SDS011;38616;42.140;24.760;2023-05-14T13:55:43;22.17;;;12.13;;
52718;SDS011;38616;42.140;24.760;2023-05-14T13:58:08;17.35;;;11.68;;
52718;SDS011;38616;42.140;24.760;2023-05-14T14:00:34;17.20;;;11.20;;
52718;SDS011;38616;42.140;24.760;2023-05-14T14:03:00;17.42;;;10.80;;
52718;SDS011;38616;42.140;24.760;2023-05-14T14:05:25;16.70;;;10.75;;
52718;SDS011;38616;42.140;24.760;2023-05-14T14:07:53;19.75;;;10.57;;
52718;SDS011;38616;42.140;24.760;2023-05-14T14:10:18;16.83;;;10.93;;
52718;SDS011;38616;42.140;24.760;2023-05-14T14:12:45;18.95;;;12.05;;
52718;SDS011;38616;42.140;24.760;2023-05-14T14:15:10;18.83;;;11.90;;
52718;SDS011;38616;42.140;24.760;2023-05-14T14:17:36;27.20;;;14.50;;
52718;SDS011;38616;42.140;24.760;2023-05-14T14:20:03;19.65;;;12.57;;
52718;SDS011;38616;42.140;24.760;2023-05-14T14:22:30;15.20;;;10.85;;
52718;SDS011;38616;42.140;24.760;2023-05-14T14:24:55;15.68;;;10.30;;
52718;SDS011;38616;42.140;24.760;2023-05-14T14:27:21;17.00;;;11.32;;
52718;SDS011;38616;42.140;24.760;2023-05-14T14:29:46;28.30;;;16.05;;
52718;SDS011;38616;42.140;24.760;2023-05-14T14:32:12;29.60;;;18.33;;
52718;SDS011;38616;42.140;24.760;2023-05-14T14:34:37;25.30;;;14.88;;
52718;SDS011;38616;42.140;24.760;2023-05-14T14:37:03;25.45;;;12.73;;
52718;SDS011;38616;42.140;24.760;2023-05-14T14:39:28;17.35;;;10.80;;
52718;SDS011;38616;42.140;24.760;2023-05-14T14:41:54;22.42;;;12.82;;
52718;SDS011;38616;42.140;24.760;2023-05-14T14:44:19;25.83;;;12.55;;